Time;durP1;ratioP1;P1;durP2;ratioP2;P2;SDS_P1;SDS_P2;PMS_P1;PMS_P2;Temp;Humidity;BMP_temperature;BMP_pressure;BME280_temperature;BME280_humidity;BME280_pressure;Samples;Min_cycle;Max_cycle;Signal;HPM_P1;HPM_P2
2021/07/23 00:01:13;;;;;;;18.73;12.47;;;20.00;99.90;;;;;;4992207;28;20458;-54
2021/07/23 00:03:40;;;;;;;22.30;12.33;;;20.00;99.90;;;;;;4991997;28;20478;-53
2021/07/23 00:06:08;;;;;;;19.53;12.43;;;20.00;99.90;;;;;;4992080;28;20474;-53
2021/07/23 00:08:35;;;;;;;17.43;12.30;;;19.80;99.90;;;;;;4992044;28;20517;-54
2021/07/23 00:11:02;;;;;;;16.80;11.50;;;19.60;99.90;;;;;;4991976;28;20458;-55
2021/07/23 00:13:29;;;;;;;18.97;11.30;;;19.80;99.90;;;;;;4992167;28;20475;-54
2021/07/23 00:15:56;;;;;;;23.20;11.87;;;19.80;99.90;;;;;;4992280;28;20454;-55
2021/07/23 00:18:25;;;;;;;17.77;11.37;;;19.80;99.90;;;;;;4991857;28;20852;-54
2021/07/23 00:20:52;;;;;;;18.63;11.77;;;19.80;99.90;;;;;;4981253;28;20463;-53
2021/07/23 00:23:19;;;;;;;18.93;11.90;;;19.80;99.90;;;;;;4972250;28;20491;-53
2021/07/23 00:25:46;;;;;;;18.80;11.80;;;19.80;99.90;;;;;;4972711;28;20533;-53
2021/07/23 00:28:14;;;;;;;18.43;12.17;;;19.80;99.90;;;;;;4973258;28;20455;-52
2021/07/23 00:30:41;;;;;;;21.40;13.63;;;19.80;99.90;;;;;;4990706;28;20835;-53
2021/07/23 00:33:08;;;;;;;17.77;11.40;;;19.70;99.90;;;;;;4991263;28;20478;-53
2021/07/23 00:35:37;;;;;;;21.27;13.40;;;19.70;99.90;;;;;;4991857;28;20455;-53
2021/07/23 00:38:05;;;;;;;18.07;12.00;;;19.60;99.90;;;;;;4991484;28;20963;-52
2021/07/23 00:40:33;;;;;;;17.27;10.27;;;19.60;99.90;;;;;;4991703;28;20451;-53
2021/07/23 00:43:00;;;;;;;17.23;11.07;;;19.60;99.90;;;;;;4991800;28;20473;-52
2021/07/23 00:45:28;;;;;;;16.43;11.17;;;19.60;99.90;;;;;;4991776;28;20566;-53
2021/07/23 00:48:01;;;;;;;16.13;11.30;;;19.50;99.90;;;;;;4991862;28;20537;-54
2021/07/23 00:50:29;;;;;;;20.30;11.77;;;19.50;99.90;;;;;;4991532;28;20539;-53
2021/07/23 00:52:58;;;;;;;22.47;13.20;;;19.40;99.90;;;;;;4991343;28;20474;-53
2021/07/23 00:55:26;;;;;;;19.40;12.40;;;19.20;99.90;;;;;;4991901;28;20883;-53
2021/07/23 00:57:55;;;;;;;18.40;11.23;;;19.20;99.90;;;;;;4991696;28;20454;-53
2021/07/23 01:00:23;;;;;;;17.87;10.90;;;19.20;99.90;;;;;;4991146;28;20455;-54
2021/07/23 01:02:51;;;;;;;18.23;11.40;;;19.20;99.90;;;;;;4991654;28;20470;-54
2021/07/23 01:05:18;;;;;;;16.33;10.53;;;19.30;99.90;;;;;;4991698;28;20516;-54
2021/07/23 01:07:45;;;;;;;15.70;11.23;;;19.20;99.90;;;;;;4992183;28;20463;-53
2021/07/23 01:10:14;;;;;;;17.70;11.13;;;19.20;99.90;;;;;;4986664;28;20461;-53
2021/07/23 01:12:41;;;;;;;21.77;12.43;;;19.20;99.90;;;;;;4991083;28;20474;-52
2021/07/23 01:15:10;;;;;;;17.50;12.10;;;19.20;99.90;;;;;;4991740;28;20454;-53
2021/07/23 01:17:38;;;;;;;20.80;12.40;;;19.10;99.90;;;;;;4991753;28;20454;-53
2021/07/23 01:20:12;;;;;;;18.20;11.40;;;19.20;99.90;;;;;;4991310;28;20874;-54
2021/07/23 01:22:41;;;;;;;17.90;10.60;;;19.20;99.90;;;;;;4990996;28;20478;-53
2021/07/23 01:25:11;;;;;;;17.47;11.20;;;19.20;99.90;;;;;;4991356;28;20458;-54
2021/07/23 01:27:43;;;;;;;17.50;10.53;;;19.20;99.90;;;;;;4991278;28;20500;-54
2021/07/23 01:30:11;;;;;;;15.67;10.40;;;19.20;99.90;;;;;;4991102;28;20464;-54
2021/07/23 01:32:38;;;;;;;19.17;12.30;;;19.30;99.90;;;;;;4992212;28;20474;-53
2021/07/23 01:35:06;;;;;;;20.63;12.97;;;19.20;99.90;;;;;;4994589;28;20948;-53
2021/07/23 01:37:34;;;;;;;18.50;12.77;;;19.10;99.90;;;;;;4995145;28;20450;-52
2021/07/23 01:40:01;;;;;;;17.33;12.70;;;19.00;99.90;;;;;;4994401;28;20459;-53
2021/07/23 01:42:31;;;;;;;22.67;13.07;;;19.00;99.90;;;;;;4994256;28;20528;-53
2021/07/23 01:44:58;;;;;;;23.33;12.13;;;19.10;99.90;;;;;;4994815;28;20904;-54
2021/07/23 01:47:25;;;;;;;20.00;12.53;;;19.20;99.90;;;;;;4994828;28;20486;-53
2021/07/23 01:49:53;;;;;;;17.87;12.50;;;19.20;99.90;;;;;;4994510;28;20454;-53
2021/07/23 01:52:20;;;;;;;19.03;11.53;;;19.20;99.90;;;;;;4994287;28;20490;-53
2021/07/23 01:54:47;;;;;;;17.93;12.10;;;19.30;99.90;;;;;;4993335;28;20450;-55
2021/07/23 01:57:14;;;;;;;18.63;11.70;;;19.10;99.90;;;;;;4994054;28;20525;-53
2021/07/23 01:59:43;;;;;;;18.83;12.20;;;19.10;99.90;;;;;;4994484;28;20458;-55
2021/07/23 02:02:10;;;;;;;19.33;12.50;;;19.00;99.90;;;;;;4994349;28;20630;-53
2021/07/23 02:04:37;;;;;;;17.50;11.17;;;19.00;99.90;;;;;;4994823;28;20517;-53
2021/07/23 02:07:04;;;;;;;18.87;12.03;;;18.90;99.90;;;;;;4994240;28;20486;-53
2021/07/23 02:09:31;;;;;;;23.47;12.93;;;18.90;99.90;;;;;;4993915;28;20521;-54
2021/07/23 02:12:02;;;;;;;17.97;11.80;;;18.90;99.90;;;;;;4993625;28;20893;-52
2021/07/23 02:14:30;;;;;;;18.93;11.77;;;18.60;99.90;;;;;;4994140;28;20451;-53
2021/07/23 02:16:58;;;;;;;19.27;12.50;;;18.70;99.90;;;;;;4994553;28;20546;-53
2021/07/23 02:19:25;;;;;;;22.30;13.47;;;18.60;99.90;;;;;;4993361;28;20877;-53
2021/07/23 02:21:52;;;;;;;19.00;12.07;;;18.60;99.90;;;;;;4992350;28;20880;-53
2021/07/23 02:24:19;;;;;;;18.00;12.00;;;18.60;99.90;;;;;;5033422;22;20504;-57
2021/07/23 02:26:46;;;;;;;21.00;13.13;;;18.70;99.90;;;;;;5011406;28;20484;-57
2021/07/23 02:29:13;;;;;;;18.10;12.20;;;18.70;99.90;;;;;;5012497;28;20454;-57
2021/07/23 02:31:40;;;;;;;20.80;12.60;;;18.70;99.90;;;;;;5013090;28;20515;-57
2021/07/23 02:34:09;;;;;;;17.93;12.20;;;18.70;99.90;;;;;;5013064;28;20880;-57
2021/07/23 02:36:35;;;;;;;21.17;12.33;;;18.70;99.90;;;;;;5007261;28;20446;-57
2021/07/23 02:39:03;;;;;;;24.37;14.50;;;18.70;99.90;;;;;;5013039;28;20978;-57
2021/07/23 02:41:30;;;;;;;18.47;12.50;;;18.70;99.90;;;;;;5013254;28;20952;-57
2021/07/23 02:43:57;;;;;;;23.83;13.30;;;18.70;99.90;;;;;;5012859;28;20540;-57
2021/07/23 02:46:24;;;;;;;21.67;12.80;;;18.70;99.90;;;;;;5004565;28;20477;-57
2021/07/23 02:48:51;;;;;;;20.00;12.63;;;18.70;99.90;;;;;;5012572;28;20453;-57
2021/07/23 02:51:19;;;;;;;23.43;13.93;;;18.60;99.90;;;;;;5012595;28;20446;-57
2021/07/23 02:53:46;;;;;;;20.67;14.23;;;18.60;99.90;;;;;;5012678;28;20519;-57
2021/07/23 02:56:13;;;;;;;23.13;13.20;;;18.60;99.90;;;;;;5012712;28;20446;-57
2021/07/23 02:58:42;;;;;;;21.30;13.10;;;18.60;99.90;;;;;;5013199;28;20504;-57
2021/07/23 03:01:09;;;;;;;24.53;13.97;;;18.60;99.90;;;;;;5012738;28;20458;-57
2021/07/23 03:03:36;;;;;;;18.97;12.07;;;18.60;99.90;;;;;;5012053;28;20493;-57
2021/07/23 03:06:03;;;;;;;22.70;14.10;;;18.50;99.90;;;;;;5001574;28;20477;-57
2021/07/23 03:08:32;;;;;;;22.27;14.47;;;18.50;99.90;;;;;;5012685;28;20508;-57
2021/07/23 03:10:59;;;;;;;24.30;14.00;;;18.50;99.90;;;;;;5012523;28;20453;-57
2021/07/23 03:13:26;;;;;;;25.47;14.60;;;18.50;99.90;;;;;;5012662;28;20979;-57
2021/07/23 03:15:53;;;;;;;24.57;14.20;;;18.30;99.90;;;;;;5012461;28;20885;-57
2021/07/23 03:18:20;;;;;;;22.90;14.17;;;18.20;99.90;;;;;;5012925;28;20505;-57
2021/07/23 03:20:46;;;;;;;24.60;14.20;;;18.40;99.90;;;;;;5012512;28;20880;-57
2021/07/23 03:23:13;;;;;;;23.20;14.83;;;18.40;99.90;;;;;;5012342;28;20485;-57
2021/07/23 03:25:42;;;;;;;19.33;12.27;;;18.40;99.90;;;;;;5012394;28;20453;-57
2021/07/23 03:28:09;;;;;;;24.37;13.03;;;18.40;99.90;;;;;;5012423;28;20485;-57
2021/07/23 03:30:37;;;;;;;22.17;13.37;;;18.40;99.90;;;;;;5012435;28;20508;-57
2021/07/23 03:33:04;;;;;;;22.03;13.90;;;18.40;99.90;;;;;;5012316;28;20524;-58
2021/07/23 03:35:31;;;;;;;18.33;12.73;;;18.30;99.90;;;;;;5011853;28;22141;-57
2021/07/23 03:37:58;;;;;;;21.87;14.37;;;18.40;99.90;;;;;;5012213;28;20820;-57
2021/07/23 03:40:25;;;;;;;21.13;13.43;;;18.40;99.90;;;;;;5011988;28;20864;-57
2021/07/23 03:42:53;;;;;;;22.20;13.07;;;18.40;99.90;;;;;;5012307;28;20473;-57
2021/07/23 03:45:21;;;;;;;22.73;14.03;;;18.40;99.90;;;;;;5012050;28;20453;-57
2021/07/23 03:47:48;;;;;;;23.47;13.90;;;18.40;99.90;;;;;;5011359;28;20485;-57
2021/07/23 03:50:15;;;;;;;28.17;16.20;;;18.30;99.90;;;;;;5012135;28;20461;-57
2021/07/23 03:52:42;;;;;;;21.80;13.10;;;18.30;99.90;;;;;;5011764;28;20892;-57
2021/07/23 03:55:12;;;;;;;25.80;15.70;;;18.40;99.90;;;;;;5011624;28;20461;-57
2021/07/23 03:57:39;;;;;;;20.30;13.67;;;18.40;99.90;;;;;;5011521;28;20867;-57
2021/07/23 04:00:10;;;;;;;22.67;14.33;;;18.40;99.90;;;;;;5011719;28;20507;-57
2021/07/23 04:02:37;;;;;;;21.93;13.73;;;18.50;99.90;;;;;;5011729;28;21017;-57
2021/07/23 04:05:04;;;;;;;20.20;13.13;;;18.50;99.90;;;;;;5011904;28;20975;-57
2021/07/23 04:07:31;;;;;;;20.93;13.43;;;18.50;99.90;;;;;;5011579;28;20477;-57
2021/07/23 04:09:59;;;;;;;22.73;14.17;;;18.50;99.90;;;;;;5012036;28;20457;-57
2021/07/23 04:12:26;;;;;;;22.23;14.40;;;18.60;99.90;;;;;;5008629;28;20461;-57
2021/07/23 04:14:53;;;;;;;28.13;14.50;;;18.50;99.90;;;;;;5002871;28;20879;-57
2021/07/23 04:17:22;;;;;;;27.30;14.03;;;18.50;99.90;;;;;;5011536;28;20500;-57
2021/07/23 04:19:49;;;;;;;23.90;14.70;;;18.60;99.90;;;;;;5011122;28;20504;-57
2021/07/23 04:22:17;;;;;;;24.43;14.77;;;18.60;99.90;;;;;;5005889;28;20463;-57
2021/07/23 04:24:44;;;;;;;24.87;13.70;;;18.60;99.90;;;;;;4992502;28;20530;-58
2021/07/23 04:27:13;;;;;;;18.60;12.37;;;18.70;99.90;;;;;;4995748;28;20528;-57
2021/07/23 04:29:40;;;;;;;23.30;14.57;;;18.80;99.90;;;;;;5003974;28;20449;-57
2021/07/23 04:32:07;;;;;;;22.47;14.23;;;18.90;99.90;;;;;;5004975;28;20446;-57
2021/07/23 04:34:36;;;;;;;22.90;14.00;;;18.80;99.90;;;;;;5010111;28;20520;-57
2021/07/23 04:37:05;;;;;;;23.60;13.30;;;19.00;99.90;;;;;;5008140;28;20445;-57
2021/07/23 04:39:32;;;;;;;26.20;14.97;;;18.90;99.90;;;;;;5006298;28;20500;-57
2021/07/23 04:41:59;;;;;;;25.20;13.77;;;19.00;99.90;;;;;;5004432;28;20461;-58
2021/07/23 04:44:29;;;;;;;25.93;13.87;;;19.00;99.90;;;;;;5003655;28;20473;-57
2021/07/23 04:47:00;;;;;;;24.20;13.53;;;19.20;99.90;;;;;;5002169;28;20469;-57
2021/07/23 04:49:27;;;;;;;23.40;14.57;;;19.20;99.90;;;;;;4995592;28;20537;-57
2021/07/23 04:51:56;;;;;;;19.30;12.97;;;19.10;99.90;;;;;;4993170;28;20451;-58
2021/07/23 04:54:23;;;;;;;25.47;15.57;;;19.20;99.90;;;;;;5004838;28;20502;-57
2021/07/23 04:56:52;;;;;;;25.50;14.20;;;19.30;99.90;;;;;;5000342;28;20939;-57
2021/07/23 04:59:19;;;;;;;27.20;15.80;;;19.50;99.90;;;;;;4993064;28;20541;-57
2021/07/23 05:01:46;;;;;;;19.00;12.60;;;19.90;99.90;;;;;;4992978;28;20521;-57
2021/07/23 05:04:13;;;;;;;20.30;13.60;;;20.40;99.90;;;;;;5010345;28;20474;-57
2021/07/23 05:06:40;;;;;;;19.67;13.13;;;20.80;99.90;;;;;;5001811;28;20542;-57
2021/07/23 05:09:09;;;;;;;21.43;13.93;;;20.80;99.90;;;;;;5004932;28;20973;-58
2021/07/23 05:11:37;;;;;;;19.73;13.57;;;20.80;99.90;;;;;;5000670;28;20512;-57
2021/07/23 05:14:06;;;;;;;24.10;14.07;;;20.80;99.90;;;;;;5007459;28;20462;-57
2021/07/23 05:16:34;;;;;;;21.50;13.40;;;21.30;99.90;;;;;;5007686;28;20454;-57
2021/07/23 05:19:01;;;;;;;22.00;12.67;;;21.80;99.90;;;;;;5011430;28;21001;-57
2021/07/23 05:21:30;;;;;;;24.47;14.47;;;22.00;99.90;;;;;;5009468;28;20454;-57
2021/07/23 05:24:03;;;;;;;28.20;14.53;;;21.90;99.90;;;;;;5013626;28;20829;-57
2021/07/23 05:26:34;;;;;;;22.60;13.23;;;21.50;99.90;;;;;;5013600;28;20454;-57
2021/07/23 05:29:01;;;;;;;21.43;14.07;;;22.00;99.90;;;;;;5010638;28;20468;-57
2021/07/23 05:31:29;;;;;;;21.40;12.60;;;22.80;99.90;;;;;;5007749;28;21218;-57
2021/07/23 05:33:57;;;;;;;18.40;12.50;;;23.50;99.90;;;;;;4999107;28;20536;-57
2021/07/23 05:36:24;;;;;;;16.37;11.83;;;24.20;99.90;;;;;;5002459;28;20467;-57
2021/07/23 05:38:51;;;;;;;21.50;12.60;;;24.80;99.90;;;;;;5012411;28;20442;-57
2021/07/23 05:41:18;;;;;;;17.00;12.33;;;25.10;99.90;;;;;;5010125;28;20576;-57
2021/07/23 05:43:47;;;;;;;16.10;11.43;;;25.10;99.90;;;;;;4996442;28;20466;-57
2021/07/23 05:46:15;;;;;;;20.90;13.83;;;25.60;99.90;;;;;;5003875;28;21022;-58
2021/07/23 05:48:42;;;;;;;19.67;13.57;;;26.20;99.90;;;;;;4995247;28;20494;-58
2021/07/23 05:51:11;;;;;;;20.90;13.30;;;26.50;99.90;;;;;;4998042;28;21230;-58
2021/07/23 05:53:38;;;;;;;15.30;11.93;;;26.50;99.90;;;;;;5010730;28;21062;-58
2021/07/23 05:56:06;;;;;;;20.73;13.20;;;26.80;99.90;;;;;;5006584;28;20449;-57
2021/07/23 05:58:33;;;;;;;19.70;12.03;;;27.00;99.90;;;;;;5008152;28;21018;-57
2021/07/23 06:01:06;;;;;;;17.27;12.47;;;27.20;99.90;;;;;;5010994;28;20450;-57
2021/07/23 06:03:33;;;;;;;24.43;14.27;;;27.50;99.90;;;;;;4996933;28;20482;-57
2021/07/23 06:06:01;;;;;;;19.97;13.53;;;27.80;99.90;;;;;;4998085;28;20539;-58
2021/07/23 06:08:28;;;;;;;20.67;13.33;;;27.90;99.90;;;;;;5010419;28;21063;-58
2021/07/23 06:10:55;;;;;;;19.13;13.70;;;28.00;99.90;;;;;;5012192;28;20508;-58
2021/07/23 06:13:22;;;;;;;19.03;11.97;;;28.10;99.90;;;;;;5002888;28;20473;-58
2021/07/23 06:15:50;;;;;;;19.00;12.50;;;28.40;99.90;;;;;;5001638;28;20450;-58
2021/07/23 06:18:18;;;;;;;23.70;13.93;;;28.50;99.90;;;;;;4998179;28;20877;-57
2021/07/23 06:20:45;;;;;;;24.77;13.07;;;28.00;99.90;;;;;;4997477;28;20449;-58
2021/07/23 06:23:12;;;;;;;21.13;14.17;;;28.30;99.90;;;;;;4993979;28;20470;-57
2021/07/23 06:25:39;;;;;;;20.03;13.40;;;28.50;99.90;;;;;;5007415;28;20449;-57
2021/07/23 06:28:06;;;;;;;18.73;13.30;;;28.60;99.90;;;;;;5011547;28;20475;-58
2021/07/23 06:30:33;;;;;;;14.87;12.30;;;28.80;99.90;;;;;;5006691;28;20970;-58
2021/07/23 06:33:00;;;;;;;23.60;13.70;;;28.90;99.90;;;;;;5012291;28;20778;-57
2021/07/23 06:35:32;;;;;;;18.13;13.50;;;29.00;99.90;;;;;;5012295;28;20472;-58
2021/07/23 06:37:58;;;;;;;19.43;13.50;;;28.70;99.90;;;;;;5009590;28;20939;-58
2021/07/23 06:40:26;;;;;;;15.30;12.20;;;28.90;99.90;;;;;;5005454;28;20449;-58
2021/07/23 06:42:53;;;;;;;20.50;13.57;;;27.60;99.90;;;;;;5012065;28;20515;-57
2021/07/23 06:45:20;;;;;;;16.30;11.67;;;28.20;99.90;;;;;;5011274;28;20445;-57
2021/07/23 06:47:47;;;;;;;18.40;13.70;;;28.80;99.90;;;;;;5000507;28;20479;-58
2021/07/23 06:50:14;;;;;;;18.80;14.00;;;28.60;99.90;;;;;;5000770;28;20454;-58
2021/07/23 06:52:43;;;;;;;18.03;13.93;;;28.30;99.90;;;;;;4993337;28;20482;-58
2021/07/23 06:55:12;;;;;;;20.20;13.70;;;28.80;99.90;;;;;;5004844;28;20512;-58
2021/07/23 06:57:39;;;;;;;20.30;13.10;;;29.10;99.90;;;;;;5012419;28;20481;-58
2021/07/23 07:00:07;;;;;;;20.07;13.63;;;29.40;99.90;;;;;;5012904;28;20458;-58
2021/07/23 07:02:34;;;;;;;17.90;12.87;;;28.80;99.90;;;;;;5012265;28;21021;-58
2021/07/23 07:05:02;;;;;;;18.50;13.77;;;28.90;99.90;;;;;;5013040;28;20500;-58
2021/07/23 07:07:29;;;;;;;19.40;14.30;;;29.40;99.90;;;;;;5012848;28;20876;-57
2021/07/23 07:09:57;;;;;;;18.98;13.15;;;29.60;99.90;;;;;;5011513;28;20455;-58
2021/07/23 07:12:24;;;;;;;18.47;13.33;;;29.40;99.90;;;;;;5006311;28;20198;-58
2021/07/23 07:14:51;;;;;;;18.67;14.20;;;29.90;99.90;;;;;;5012477;28;20457;-58
2021/07/23 07:17:18;;;;;;;17.77;12.83;;;30.20;99.90;;;;;;5012676;28;20445;-57
2021/07/23 07:19:45;;;;;;;16.97;13.37;;;29.60;99.90;;;;;;5011958;28;20457;-58
2021/07/23 07:22:12;;;;;;;16.90;13.00;;;29.80;99.90;;;;;;5011996;28;20450;-58
2021/07/23 07:24:39;;;;;;;21.87;14.67;;;29.90;99.90;;;;;;5012191;28;20543;-58
2021/07/23 07:27:07;;;;;;;16.93;13.77;;;29.60;99.90;;;;;;5007445;28;20875;-58
2021/07/23 07:29:36;;;;;;;19.00;13.70;;;29.50;99.90;;;;;;5012461;28;20503;-58
2021/07/23 07:32:07;;;;;;;20.57;14.50;;;30.20;99.90;;;;;;5010971;28;20472;-58
2021/07/23 07:34:34;;;;;;;19.43;13.43;;;29.90;99.90;;;;;;5011129;28;20461;-58
2021/07/23 07:37:01;;;;;;;16.03;12.73;;;30.00;99.90;;;;;;5011807;28;20449;-58
2021/07/23 07:39:28;;;;;;;19.43;14.17;;;29.90;99.90;;;;;;5000899;28;20469;-57
2021/07/23 07:42:00;;;;;;;16.93;12.50;;;30.60;99.90;;;;;;4991632;28;20886;-58
2021/07/23 07:44:29;;;;;;;17.50;12.67;;;31.30;99.90;;;;;;5005887;28;20484;-58
2021/07/23 07:46:56;;;;;;;18.80;13.40;;;31.80;99.90;;;;;;5011688;28;20488;-58
2021/07/23 07:49:23;;;;;;;18.37;13.97;;;32.10;99.90;;;;;;5011755;28;21134;-58
2021/07/23 07:51:50;;;;;;;19.57;14.07;;;32.00;99.90;;;;;;5012157;28;20453;-58
2021/07/23 07:54:16;;;;;;;22.00;14.23;;;32.20;99.90;;;;;;5011558;28;20547;-58
2021/07/23 07:56:44;;;;;;;18.47;14.00;;;32.00;99.90;;;;;;5012212;28;20507;-58
2021/07/23 07:59:11;;;;;;;23.40;14.77;;;31.80;99.90;;;;;;5011527;28;20805;-58
2021/07/23 08:01:39;;;;;;;17.00;11.93;;;32.10;99.90;;;;;;5011962;28;20453;-58
2021/07/23 08:04:06;;;;;;;18.63;13.87;;;31.80;99.90;;;;;;5011301;28;20561;-58
2021/07/23 08:06:35;;;;;;;15.37;12.70;;;31.50;99.90;;;;;;5011625;28;20954;-58
2021/07/23 08:09:05;;;;;;;15.93;13.53;;;32.00;99.90;;;;;;5011975;28;20492;-58
2021/07/23 08:11:33;;;;;;;19.90;13.60;;;32.20;99.90;;;;;;5012144;28;20967;-59
2021/07/23 08:14:00;;;;;;;17.17;14.17;;;32.10;99.90;;;;;;5011453;28;20469;-59
2021/07/23 08:16:27;;;;;;;18.40;13.43;;;32.20;99.90;;;;;;5011886;28;20454;-58
2021/07/23 08:18:55;;;;;;;18.33;14.10;;;32.40;99.90;;;;;;5011858;28;20442;-58
2021/07/23 08:21:23;;;;;;;19.63;13.83;;;32.60;99.90;;;;;;5011709;28;20833;-58
2021/07/23 08:23:49;;;;;;;22.37;14.97;;;32.80;99.90;;;;;;5063084;22;21012;-54
2021/07/23 08:26:17;;;;;;;20.00;13.53;;;32.80;99.90;;;;;;5069563;28;20488;-53
2021/07/23 08:28:44;;;;;;;19.00;13.63;;;32.80;99.90;;;;;;5051684;28;20985;-53
2021/07/23 08:31:12;;;;;;;15.40;12.80;;;33.10;99.90;;;;;;5051637;28;20483;-53
2021/07/23 08:33:39;;;;;;;20.27;15.03;;;33.20;99.60;;;;;;5051136;28;21035;-53
2021/07/23 08:36:07;;;;;;;19.23;13.50;;;32.80;99.90;;;;;;5051644;28;20458;-53
2021/07/23 08:38:34;;;;;;;17.23;13.40;;;32.10;99.90;;;;;;5053313;28;20479;-53
2021/07/23 08:41:02;;;;;;;15.60;12.67;;;32.40;99.90;;;;;;5057115;28;21029;-54
2021/07/23 08:43:29;;;;;;;17.57;14.07;;;32.70;99.90;;;;;;5071739;28;20923;-55
2021/07/23 08:45:56;;;;;;;17.63;13.57;;;32.50;99.90;;;;;;5075575;28;20538;-55
2021/07/23 08:48:23;;;;;;;15.57;12.83;;;32.30;99.90;;;;;;5056576;28;20521;-54
2021/07/23 08:50:50;;;;;;;17.83;13.90;;;32.80;99.90;;;;;;5075465;28;20451;-53
2021/07/23 08:53:19;;;;;;;20.03;15.33;;;32.30;99.90;;;;;;5075178;28;20471;-53
2021/07/23 08:55:46;;;;;;;21.30;14.80;;;31.30;99.90;;;;;;5061408;28;20455;-55
2021/07/23 08:58:12;;;;;;;19.50;14.90;;;30.20;99.90;;;;;;5055106;28;20448;-53
2021/07/23 09:00:40;;;;;;;21.50;14.53;;;28.90;99.90;;;;;;5061011;28;20512;-52
2021/07/23 09:03:08;;;;;;;24.27;13.80;;;29.30;99.90;;;;;;5055144;28;20552;-54
2021/07/23 09:05:37;;;;;;;20.83;14.40;;;29.60;99.90;;;;;;5056192;28;20459;-53
2021/07/23 09:08:13;;;;;;;16.07;12.00;;;29.90;99.90;;;;;;5054835;28;20919;-55
2021/07/23 09:10:42;;;;;;;20.60;13.03;;;30.60;99.90;;;;;;5067665;28;20972;-55
2021/07/23 09:13:10;;;;;;;16.47;13.20;;;31.20;99.90;;;;;;5054887;28;20467;-53
2021/07/23 09:15:38;;;;;;;16.20;12.90;;;30.70;99.90;;;;;;5066667;28;20458;-54
2021/07/23 09:18:07;;;;;;;16.60;12.90;;;31.30;99.90;;;;;;5065800;28;20943;-53
2021/07/23 09:20:36;;;;;;;18.27;14.00;;;32.00;99.90;;;;;;5071573;28;21032;-53
2021/07/23 09:23:05;;;;;;;19.80;14.73;;;31.90;99.90;;;;;;5074362;28;21000;-53
2021/07/23 09:25:44;;;;;;;20.13;13.10;;;30.70;99.90;;;;;;5062590;28;20447;-53
2021/07/23 09:28:23;;;;;;;17.80;14.80;;;30.50;99.90;;;;;;5054768;28;20529;-53
2021/07/23 09:30:50;;;;;;;22.23;14.00;;;30.80;99.90;;;;;;5059666;28;20451;-52
2021/07/23 09:33:25;;;;;;;24.57;14.63;;;30.90;99.90;;;;;;5074289;28;20466;-54
2021/07/23 09:35:53;;;;;;;20.83;13.77;;;30.00;99.90;;;;;;5072679;28;20583;-53
2021/07/23 09:38:21;;;;;;;17.20;12.47;;;28.70;99.90;;;;;;5062303;28;20454;-53
2021/07/23 09:40:49;;;;;;;19.70;13.70;;;29.20;99.90;;;;;;5072831;28;20450;-53
2021/07/23 09:43:33;;;;;;;18.50;12.43;;;30.20;99.90;;;;;;5061450;28;20558;-53
2021/07/23 09:46:26;;;;;;;14.87;11.43;;;30.30;99.90;;;;;;5062388;28;20505;-54
2021/07/23 09:48:59;;;;;;;15.83;12.90;;;30.80;99.90;;;;;;5054509;28;20519;-54
2021/07/23 09:51:27;;;;;;;15.97;12.53;;;30.80;99.90;;;;;;5054240;28;21009;-53
2021/07/23 09:53:55;;;;;;;16.00;11.97;;;29.80;99.90;;;;;;5053525;28;20475;-53
2021/07/23 09:56:25;;;;;;;18.30;12.63;;;30.00;99.90;;;;;;5057820;28;20824;-53
2021/07/23 09:59:06;;;;;;;20.87;12.50;;;30.70;99.90;;;;;;5055979;28;20930;-53
2021/07/23 10:01:42;;;;;;;16.27;12.30;;;31.60;99.90;;;;;;5054032;28;20476;-54
2021/07/23 10:04:19;;;;;;;18.60;11.90;;;31.00;99.90;;;;;;5069859;28;20470;-54
2021/07/23 10:06:54;;;;;;;16.10;12.27;;;30.90;99.90;;;;;;5053931;28;20447;-53
2021/07/23 10:09:26;;;;;;;14.53;11.23;;;31.30;99.90;;;;;;5056344;28;20562;-53
2021/07/23 10:11:55;;;;;;;16.50;12.73;;;31.20;99.90;;;;;;5072423;28;20447;-53
2021/07/23 10:14:27;;;;;;;24.67;12.37;;;31.10;99.90;;;;;;5054837;28;20846;-54
2021/07/23 10:16:54;;;;;;;15.20;12.53;;;31.40;99.90;;;;;;5055850;28;20527;-53
2021/07/23 10:19:23;;;;;;;15.90;12.63;;;30.40;99.90;;;;;;5062933;28;20945;-53
2021/07/23 10:21:54;;;;;;;21.73;12.73;;;29.60;99.90;;;;;;5065159;28;20985;-55
2021/07/23 10:24:21;;;;;;;18.03;12.73;;;29.80;99.90;;;;;;5060364;28;20973;-53
2021/07/23 10:26:49;;;;;;;17.23;12.50;;;29.50;99.90;;;;;;5071237;28;20451;-53
2021/07/23 10:29:48;;;;;;;14.90;12.23;;;28.60;99.90;;;;;;5070427;28;20988;-54
2021/07/23 10:32:34;;;;;;;15.20;11.43;;;28.40;99.90;;;;;;5054338;28;20452;-53
2021/07/23 10:35:22;;;;;;;15.73;12.47;;;27.90;99.90;;;;;;5053115;28;20551;-53
2021/07/23 10:37:51;;;;;;;16.93;12.00;;;28.10;99.90;;;;;;5053263;28;20505;-52
2021/07/23 10:40:20;;;;;;;17.93;12.93;;;29.60;99.90;;;;;;5066493;28;21037;-55
2021/07/23 10:42:48;;;;;;;14.00;11.40;;;29.90;99.90;;;;;;5072831;28;20497;-54
2021/07/23 10:45:19;;;;;;;16.70;12.07;;;30.70;99.90;;;;;;5073502;28;20451;-53
2021/07/23 10:47:47;;;;;;;15.23;11.77;;;30.40;99.90;;;;;;5063177;28;20455;-51
2021/07/23 10:50:36;;;;;;;15.83;11.67;;;30.80;99.90;;;;;;5053080;28;20482;-52
2021/07/23 10:53:36;;;;;;;13.60;11.27;;;30.80;99.90;;;;;;5071452;28;21057;-52
2021/07/23 10:56:04;;;;;;;13.93;11.63;;;30.30;99.90;;;;;;5072642;28;20545;-52
2021/07/23 10:58:35;;;;;;;15.43;12.13;;;30.60;99.90;;;;;;5072946;28;20455;-53
2021/07/23 11:01:05;;;;;;;22.23;11.93;;;30.90;99.90;;;;;;5052873;28;20874;-52
2021/07/23 11:03:58;;;;;;;16.50;12.03;;;31.00;99.90;;;;;;5052437;28;20468;-53
2021/07/23 11:06:29;;;;;;;14.40;11.97;;;30.60;99.90;;;;;;5055520;28;20475;-54
2021/07/23 11:09:03;;;;;;;15.90;11.73;;;30.10;99.90;;;;;;5072361;28;20490;-53
2021/07/23 11:11:31;;;;;;;17.10;11.60;;;29.80;99.90;;;;;;5073116;28;20520;-52
2021/07/23 11:14:16;;;;;;;16.80;11.37;;;28.80;99.90;;;;;;5072232;28;20508;-52
2021/07/23 11:16:43;;;;;;;16.70;11.70;;;28.80;99.90;;;;;;5072601;28;20446;-52
2021/07/23 11:19:19;;;;;;;17.43;11.37;;;28.70;99.90;;;;;;5059160;28;20500;-52
2021/07/23 11:21:46;;;;;;;13.25;10.88;;;29.10;99.90;;;;;;5065858;28;20928;-52
2021/07/23 11:24:15;;;;;;;14.40;11.60;;;29.20;99.90;;;;;;5057055;28;20232;-52
2021/07/23 11:26:50;;;;;;;14.37;10.90;;;29.40;99.90;;;;;;5057786;28;21014;-52
2021/07/23 11:29:31;;;;;;;16.43;11.87;;;29.20;99.90;;;;;;5074779;28;20561;-52
2021/07/23 11:32:07;;;;;;;14.67;10.57;;;29.30;99.90;;;;;;5072839;28;20542;-52
2021/07/23 11:34:38;;;;;;;19.20;11.70;;;29.10;99.90;;;;;;5069178;28;21006;-51
2021/07/23 11:37:14;;;;;;;14.90;10.73;;;29.00;99.90;;;;;;5053594;28;20850;-52
2021/07/23 11:39:54;;;;;;;17.60;11.43;;;28.80;99.90;;;;;;5056285;28;20940;-52
2021/07/23 11:42:21;;;;;;;14.33;11.10;;;29.00;99.90;;;;;;5053798;28;20455;-52
2021/07/23 11:44:53;;;;;;;14.83;11.00;;;29.10;99.90;;;;;;5052200;28;20522;-52
2021/07/23 11:47:30;;;;;;;15.27;11.10;;;28.90;99.90;;;;;;5066640;28;20464;-52
2021/07/23 11:49:59;;;;;;;14.20;11.07;;;29.10;99.90;;;;;;5063186;28;20490;-52
2021/07/23 11:52:27;;;;;;;14.43;11.00;;;28.80;99.90;;;;;;5059079;28;20452;-53
2021/07/23 11:55:00;;;;;;;14.80;12.27;;;29.20;99.90;;;;;;5052893;28;20476;-52
2021/07/23 11:57:28;;;;;;;17.77;12.50;;;29.20;99.90;;;;;;5052596;28;20984;-52
2021/07/23 11:59:55;;;;;;;14.50;11.10;;;29.20;99.90;;;;;;5051670;28;20520;-52
2021/07/23 12:02:27;;;;;;;14.43;11.57;;;29.00;99.90;;;;;;5051955;28;20452;-52
2021/07/23 12:05:11;;;;;;;14.43;11.30;;;29.10;99.90;;;;;;5051996;28;21019;-53
2021/07/23 12:07:39;;;;;;;14.73;11.50;;;28.90;99.90;;;;;;5055281;28;20876;-53
2021/07/23 12:10:10;;;;;;;16.40;11.77;;;28.80;99.90;;;;;;5070047;28;20898;-53
2021/07/23 12:12:38;;;;;;;16.73;11.13;;;28.90;99.90;;;;;;5068223;28;20451;-52
2021/07/23 12:15:08;;;;;;;14.50;12.17;;;29.00;99.90;;;;;;5070925;28;20500;-52
2021/07/23 12:17:36;;;;;;;17.00;12.00;;;28.30;99.90;;;;;;5068888;28;20451;-52
2021/07/23 12:20:04;;;;;;;18.13;11.57;;;28.10;99.90;;;;;;5071154;28;20521;-53
2021/07/23 12:22:31;;;;;;;18.90;11.17;;;28.20;99.90;;;;;;5071189;28;20453;-52
2021/07/23 12:24:58;;;;;;;14.73;11.03;;;28.40;99.90;;;;;;5071020;28;20478;-52
2021/07/23 12:27:26;;;;;;;15.60;11.70;;;28.60;99.90;;;;;;5056846;28;20897;-52
2021/07/23 12:29:53;;;;;;;17.40;11.90;;;28.40;99.90;;;;;;5071131;28;20570;-52
2021/07/23 12:32:26;;;;;;;16.47;12.17;;;28.00;99.90;;;;;;5069690;28;20443;-52
2021/07/23 12:34:57;;;;;;;16.57;11.30;;;27.80;99.90;;;;;;5071523;28;20479;-52
2021/07/23 12:37:25;;;;;;;17.83;11.27;;;27.90;99.90;;;;;;5058631;28;20451;-52